aviador You're here:

EPSY Decoded Metar

SZYMANY in POLAND
Report Time2017-09-20 12:30:00
UTC Time2017-09-20 12:54:29
Flight Rules vfr VFR
Wind340° at 05 kt
W.Decomp.*RWY 02: 3.7 kt HW 3.3 kt LCW
W.Rank340° ranks 19
Current wind is below 340° avg. (7.4)
Visibility9999 m
Phenomena:N/A
Clouds:N/A
Expected CloudBase > 1,600 ft AGL from Temp-Dew spread
CeilingNone
Temp14°C (ISA -0)
Dew Point10°C (77% RH)
AAT12.3°C
QNH1017 hPa
Density Alt486 ft
Elevation463 ft
Report Wrong Elevation
Raw Report
METAR EPSY 201230Z 34005KT 320V030 CAVOK 14/10 Q1017=

Extra information for EPSY:More info

Airport Information Weather charts Add Link Nearby Venues Social comments